Time;durP1;ratioP1;P1;durP2;ratioP2;P2;SDS_P1;SDS_P2;PMS_P1;PMS_P2;Temp;Humidity;BMP_temperature;BMP_pressure;BME280_temperature;BME280_humidity;BME280_pressure;Samples;Min_cycle;Max_cycle;Signal;HPM_P1;HPM_P2
2021/11/30 00:00:55;;;;;;;7.97;4.60;;;;;;;;;;5032698;28;20619;-73
2021/11/30 00:04:00;;;;;;;5.77;4.37;;;;;;;;;;5021670;28;20584;-73
2021/11/30 00:07:03;;;;;;;7.60;4.87;;;;;;;;;;5033186;28;20915;-73
2021/11/30 00:13:17;;;;;;;6.17;4.47;;;;;;;;;;5003220;28;20620;-73
2021/11/30 00:16:21;;;;;;;6.63;4.80;;;;;;;;;;5013612;28;20533;-72
2021/11/30 00:19:25;;;;;;;8.20;4.43;;;;;;;;;;5018344;28;20948;-72
2021/11/30 00:22:29;;;;;;;6.23;4.13;;;;;;;;;;5032089;28;21027;-73
2021/11/30 00:25:34;;;;;;;6.87;4.47;;;;;;;;;;5020738;28;20599;-73
2021/11/30 00:28:39;;;;;;;6.00;3.93;;;;;;;;;;5031264;28;20592;-73
2021/11/30 00:31:43;;;;;;;5.70;4.10;;;;;;;;;;5032942;28;20623;-73
2021/11/30 00:34:47;;;;;;;6.30;4.10;;;;;;;;;;5032859;28;20594;-73
2021/11/30 00:37:51;;;;;;;4.67;4.03;;;;;;;;;;5025184;28;20584;-73
2021/11/30 00:40:55;;;;;;;5.33;4.03;;;;;;;;;;5013247;28;20628;-73
2021/11/30 00:44:00;;;;;;;5.93;4.20;;;;;;;;;;5013105;28;20542;-72
2021/11/30 00:47:04;;;;;;;5.10;3.93;;;;;;;;;;5002584;28;20894;-73
2021/11/30 00:50:08;;;;;;;7.03;4.07;;;;;;;;;;5028807;28;20612;-72
2021/11/30 00:53:13;;;;;;;6.70;4.00;;;;;;;;;;5012751;28;20938;-72
2021/11/30 00:56:17;;;;;;;4.70;4.00;;;;;;;;;;5000804;28;20588;-72
2021/11/30 00:59:27;;;;;;;4.90;3.43;;;;;;;;;;5000836;28;20592;-72
2021/11/30 01:02:31;;;;;;;6.03;3.80;;;;;;;;;;5012253;28;20652;-72
2021/11/30 01:05:36;;;;;;;6.37;4.60;;;;;;;;;;5004484;28;20604;-72
2021/11/30 01:08:40;;;;;;;5.53;4.07;;;;;;;;;;5004174;28;20595;-72
2021/11/30 01:11:46;;;;;;;4.57;3.63;;;;;;;;;;5019064;28;20648;-73
2021/11/30 01:14:50;;;;;;;6.53;4.17;;;;;;;;;;5012284;28;21084;-72
2021/11/30 01:17:54;;;;;;;5.13;4.50;;;;;;;;;;5020038;28;20627;-72
2021/11/30 01:20:59;;;;;;;4.70;3.80;;;;;;;;;;5024230;28;20636;-72
2021/11/30 01:24:05;;;;;;;4.97;3.73;;;;;;;;;;5012939;28;20597;-72
2021/11/30 01:27:09;;;;;;;5.47;4.00;;;;;;;;;;5017161;28;20548;-73
2021/11/30 01:30:15;;;;;;;7.57;4.30;;;;;;;;;;5023997;28;20535;-72
2021/11/30 01:33:19;;;;;;;5.20;4.10;;;;;;;;;;5017947;28;20545;-72
2021/11/30 01:36:23;;;;;;;5.67;4.13;;;;;;;;;;5027141;28;20544;-72
2021/11/30 01:39:27;;;;;;;7.53;4.80;;;;;;;;;;5025978;28;20599;-72
2021/11/30 01:42:32;;;;;;;4.97;4.20;;;;;;;;;;5015093;28;20647;-72
2021/11/30 01:52:09;;;;;;;5.73;4.17;;;;;;;;;;5033482;28;20643;-72
2021/11/30 01:55:13;;;;;;;6.00;4.03;;;;;;;;;;5035840;28;20541;-72
2021/11/30 01:58:18;;;;;;;9.13;4.13;;;;;;;;;;5026185;28;20584;-72
2021/11/30 02:01:23;;;;;;;8.30;4.30;;;;;;;;;;5028234;28;21000;-72
2021/11/30 02:04:28;;;;;;;7.37;4.50;;;;;;;;;;5034696;28;20557;-72
2021/11/30 02:07:32;;;;;;;7.80;4.37;;;;;;;;;;5027434;28;20624;-72
2021/11/30 02:10:37;;;;;;;6.97;4.50;;;;;;;;;;5021246;28;20650;-72
2021/11/30 02:13:41;;;;;;;5.50;4.00;;;;;;;;;;5032678;28;20623;-72
2021/11/30 02:16:46;;;;;;;5.63;4.50;;;;;;;;;;5034318;28;20540;-72
2021/11/30 02:19:53;;;;;;;5.60;3.87;;;;;;;;;;5015322;28;20557;-72
2021/11/30 02:22:58;;;;;;;7.00;3.73;;;;;;;;;;5015218;28;20584;-72
2021/11/30 02:26:07;;;;;;;6.13;4.50;;;;;;;;;;5003124;28;20608;-72
2021/11/30 02:29:12;;;;;;;5.57;3.87;;;;;;;;;;5022464;28;20921;-72
2021/11/30 02:32:18;;;;;;;4.20;3.30;;;;;;;;;;5015107;28;20640;-72
2021/11/30 02:35:23;;;;;;;5.93;3.60;;;;;;;;;;5015166;28;20537;-72
2021/11/30 02:38:27;;;;;;;6.53;3.50;;;;;;;;;;5014915;28;21191;-73
2021/11/30 02:41:31;;;;;;;5.00;3.73;;;;;;;;;;5008746;28;20636;-73
2021/11/30 02:44:36;;;;;;;5.03;3.40;;;;;;;;;;5003054;28;20592;-73
2021/11/30 02:47:40;;;;;;;4.90;3.80;;;;;;;;;;5015114;28;20541;-72
2021/11/30 02:50:44;;;;;;;4.57;3.47;;;;;;;;;;5015851;28;20667;-72
2021/11/30 02:53:48;;;;;;;4.17;3.23;;;;;;;;;;5002992;28;20531;-72
2021/11/30 02:56:55;;;;;;;4.57;3.27;;;;;;;;;;5014590;28;20620;-72
2021/11/30 02:59:59;;;;;;;3.73;3.23;;;;;;;;;;5010643;28;20591;-72
2021/11/30 03:03:03;;;;;;;5.07;3.60;;;;;;;;;;5022330;28;20596;-72
2021/11/30 03:06:07;;;;;;;4.37;3.03;;;;;;;;;;5034240;28;20615;-72
2021/11/30 03:09:11;;;;;;;3.77;3.00;;;;;;;;;;5032452;28;20602;-72
2021/11/30 03:12:16;;;;;;;5.27;3.37;;;;;;;;;;5002078;28;20639;-72
2021/11/30 03:15:23;;;;;;;5.27;3.23;;;;;;;;;;5014225;28;20612;-72
2021/11/30 03:18:28;;;;;;;4.27;3.13;;;;;;;;;;5014562;28;20557;-72
2021/11/30 03:21:32;;;;;;;5.37;3.40;;;;;;;;;;5022033;28;20968;-72
2021/11/30 03:24:37;;;;;;;6.07;3.60;;;;;;;;;;5024915;28;20628;-72
2021/11/30 03:27:40;;;;;;;4.33;3.30;;;;;;;;;;5014162;28;20600;-72
2021/11/30 03:30:54;;;;;;;4.63;3.47;;;;;;;;;;5027363;28;21015;-72
2021/11/30 03:34:00;;;;;;;7.23;3.50;;;;;;;;;;5033057;28;20552;-72
2021/11/30 03:37:08;;;;;;;3.97;3.20;;;;;;;;;;5017835;28;20589;-72
2021/11/30 03:40:13;;;;;;;4.70;3.43;;;;;;;;;;5022992;28;21151;-72
2021/11/30 03:43:17;;;;;;;3.97;3.10;;;;;;;;;;5033631;28;20603;-72
2021/11/30 03:46:21;;;;;;;4.57;3.30;;;;;;;;;;5033796;28;20548;-72
2021/11/30 03:49:27;;;;;;;3.50;3.03;;;;;;;;;;5030458;28;21134;-72
2021/11/30 03:52:31;;;;;;;5.27;3.50;;;;;;;;;;5013742;28;20648;-72
2021/11/30 03:55:35;;;;;;;3.63;2.90;;;;;;;;;;5013930;28;20541;-72
2021/11/30 03:58:39;;;;;;;3.83;3.17;;;;;;;;;;5013522;28;20551;-72
2021/11/30 04:01:43;;;;;;;4.17;3.20;;;;;;;;;;5033019;28;20984;-72
2021/11/30 04:04:47;;;;;;;4.23;3.17;;;;;;;;;;5033256;28;20600;-72
2021/11/30 04:07:52;;;;;;;3.20;2.60;;;;;;;;;;5033474;28;20540;-72
2021/11/30 04:10:56;;;;;;;3.77;2.87;;;;;;;;;;5002229;28;20651;-72
2021/11/30 04:14:00;;;;;;;5.30;3.20;;;;;;;;;;5043274;23;20688;-71
2021/11/30 04:17:06;;;;;;;3.57;3.00;;;;;;;;;;5033028;28;20591;-71
2021/11/30 04:20:11;;;;;;;7.83;3.03;;;;;;;;;;5032635;28;20627;-71
2021/11/30 04:23:16;;;;;;;4.40;3.30;;;;;;;;;;5001207;28;20584;-71
2021/11/30 04:26:20;;;;;;;15.07;4.13;;;;;;;;;;4993905;28;20883;-71
2021/11/30 04:29:24;;;;;;;3.70;2.77;;;;;;;;;;5013130;28;20942;-71
2021/11/30 04:32:28;;;;;;;3.87;3.23;;;;;;;;;;5013422;28;20624;-71
2021/11/30 04:35:32;;;;;;;4.23;3.30;;;;;;;;;;5001406;28;20540;-71
2021/11/30 04:38:38;;;;;;;3.87;3.00;;;;;;;;;;5013149;28;20596;-72
2021/11/30 04:41:42;;;;;;;3.33;2.83;;;;;;;;;;5001449;28;20624;-71
2021/11/30 04:44:53;;;;;;;4.33;3.43;;;;;;;;;;5013241;28;20652;-71
2021/11/30 04:47:57;;;;;;;4.73;3.10;;;;;;;;;;5013030;28;20600;-72
2021/11/30 04:51:03;;;;;;;4.17;3.00;;;;;;;;;;4993325;28;20637;-71
2021/11/30 04:54:07;;;;;;;4.17;3.00;;;;;;;;;;5005904;28;20585;-72
2021/11/30 04:57:12;;;;;;;7.20;3.10;;;;;;;;;;4993885;28;20538;-72
2021/11/30 05:00:17;;;;;;;3.63;2.70;;;;;;;;;;4997669;28;20593;-72
2021/11/30 05:03:21;;;;;;;5.30;2.77;;;;;;;;;;5016651;28;20652;-72
2021/11/30 05:06:25;;;;;;;5.73;2.77;;;;;;;;;;4996391;28;20593;-71
2021/11/30 05:09:29;;;;;;;5.87;2.70;;;;;;;;;;5013077;28;20596;-72
2021/11/30 05:12:33;;;;;;;3.40;2.87;;;;;;;;;;5004566;28;20611;-72
2021/11/30 05:15:37;;;;;;;6.53;4.07;;;;;;;;;;5016432;28;20592;-72
2021/11/30 05:18:42;;;;;;;4.13;3.20;;;;;;;;;;5004589;28;20949;-72
2021/11/30 05:21:47;;;;;;;3.00;2.23;;;;;;;;;;4996882;28;20629;-72
2021/11/30 05:24:51;;;;;;;3.10;2.73;;;;;;;;;;4998903;28;21196;-72
2021/11/30 05:27:54;;;;;;;4.97;2.70;;;;;;;;;;5016574;28;21107;-72
2021/11/30 05:30:59;;;;;;;5.83;3.20;;;;;;;;;;5016031;28;20660;-72
2021/11/30 05:34:03;;;;;;;3.00;2.70;;;;;;;;;;5016362;28;20890;-71
2021/11/30 05:37:07;;;;;;;4.37;2.50;;;;;;;;;;4996834;28;20537;-71
2021/11/30 05:40:12;;;;;;;3.07;2.47;;;;;;;;;;4990112;28;20588;-72
2021/11/30 05:43:16;;;;;;;2.93;2.30;;;;;;;;;;5015724;28;20592;-74
2021/11/30 05:46:20;;;;;;;2.80;2.30;;;;;;;;;;5015805;28;20592;-74
2021/11/30 05:49:24;;;;;;;2.83;2.37;;;;;;;;;;5015632;28;20588;-74
2021/11/30 05:52:29;;;;;;;4.20;2.80;;;;;;;;;;5015857;28;20623;-74
2021/11/30 05:55:33;;;;;;;3.47;2.20;;;;;;;;;;5003874;28;20536;-75
2021/11/30 05:58:40;;;;;;;5.30;2.70;;;;;;;;;;5015435;28;20553;-74
2021/11/30 06:01:44;;;;;;;3.90;2.13;;;;;;;;;;5015293;28;20648;-74
2021/11/30 06:04:48;;;;;;;3.07;2.00;;;;;;;;;;5007782;28;20628;-74
2021/11/30 06:07:53;;;;;;;4.53;2.23;;;;;;;;;;5014994;28;20588;-73
2021/11/30 06:10:57;;;;;;;3.07;2.33;;;;;;;;;;5015353;28;20648;-73
2021/11/30 06:14:02;;;;;;;2.40;2.00;;;;;;;;;;5015045;28;20631;-73
2021/11/30 06:17:09;;;;;;;4.17;2.13;;;;;;;;;;5007708;28;20585;-73
2021/11/30 06:20:13;;;;;;;2.70;1.73;;;;;;;;;;5003173;28;20584;-73
2021/11/30 06:23:17;;;;;;;4.40;2.00;;;;;;;;;;5003400;28;20543;-73
2021/11/30 06:26:21;;;;;;;4.07;2.13;;;;;;;;;;5015126;28;20588;-73
2021/11/30 06:29:25;;;;;;;3.57;2.33;;;;;;;;;;4992529;28;21148;-73
2021/11/30 06:32:30;;;;;;;2.90;2.30;;;;;;;;;;5015075;28;20627;-73
2021/11/30 06:35:37;;;;;;;5.77;2.70;;;;;;;;;;5015631;28;20533;-73
2021/11/30 06:38:41;;;;;;;7.53;2.47;;;;;;;;;;4997867;28;20538;-73
2021/11/30 06:41:45;;;;;;;3.23;2.60;;;;;;;;;;5002984;28;20616;-74
2021/11/30 06:44:50;;;;;;;3.83;2.80;;;;;;;;;;5002813;28;20937;-74
2021/11/30 06:47:54;;;;;;;10.73;6.20;;;;;;;;;;5009765;28;20620;-73
2021/11/30 06:50:58;;;;;;;5.00;3.90;;;;;;;;;;5001104;28;21005;-72
2021/11/30 06:54:02;;;;;;;3.43;2.47;;;;;;;;;;5015302;28;20536;-72
2021/11/30 06:57:07;;;;;;;2.43;2.20;;;;;;;;;;5014257;28;20929;-73
2021/11/30 07:00:13;;;;;;;5.37;2.50;;;;;;;;;;5014468;28;21175;-72
2021/11/30 07:03:18;;;;;;;4.57;2.50;;;;;;;;;;5014733;28;21172;-72
2021/11/30 07:06:53;;;;;;;3.73;2.60;;;;;;;;;;5002113;28;20573;-73
2021/11/30 07:16:49;;;;;;;3.90;2.60;;;;;;;;;;5001657;28;20597;-72
2021/11/30 07:19:53;;;;;;;4.63;2.90;;;;;;;;;;5001424;28;21195;-72
2021/11/30 07:22:58;;;;;;;5.27;2.93;;;;;;;;;;5001500;28;20584;-73
2021/11/30 07:26:02;;;;;;;8.10;3.20;;;;;;;;;;5007159;28;20581;-72
2021/11/30 07:29:06;;;;;;;6.10;3.47;;;;;;;;;;5013301;28;20584;-72
2021/11/30 07:32:11;;;;;;;4.70;3.57;;;;;;;;;;5013762;28;20675;-72
2021/11/30 07:35:16;;;;;;;3.93;3.17;;;;;;;;;;4994271;28;20550;-72
2021/11/30 07:38:20;;;;;;;5.43;3.33;;;;;;;;;;4991208;28;21117;-72
2021/11/30 07:41:24;;;;;;;4.40;2.63;;;;;;;;;;4984383;28;20644;-73
2021/11/30 07:44:28;;;;;;;15.90;9.10;;;;;;;;;;4998333;28;20620;-72
2021/11/30 07:47:32;;;;;;;8.93;4.07;;;;;;;;;;4998168;28;20572;-72
2021/11/30 07:50:37;;;;;;;7.93;4.93;;;;;;;;;;4998060;28;20639;-72
2021/11/30 07:53:41;;;;;;;48.33;25.80;;;;;;;;;;4998339;28;20988;-72
2021/11/30 07:56:47;;;;;;;6.23;4.57;;;;;;;;;;5008843;28;21519;-72
2021/11/30 07:59:51;;;;;;;6.63;5.73;;;;;;;;;;5007559;28;20636;-73
2021/11/30 08:02:55;;;;;;;7.77;4.13;;;;;;;;;;4996345;28;20572;-72
2021/11/30 08:05:59;;;;;;;8.73;4.20;;;;;;;;;;4997911;28;20611;-72
2021/11/30 08:09:04;;;;;;;12.70;8.50;;;;;;;;;;4997910;28;20556;-72
2021/11/30 08:12:08;;;;;;;7.97;7.13;;;;;;;;;;5009394;28;20632;-73
2021/11/30 08:15:14;;;;;;;9.33;5.50;;;;;;;;;;5009074;28;20587;-72
2021/11/30 08:18:18;;;;;;;6.47;5.87;;;;;;;;;;5009773;28;20600;-72
2021/11/30 08:21:22;;;;;;;6.73;5.47;;;;;;;;;;4996012;28;20659;-74
2021/11/30 08:24:26;;;;;;;5.90;3.10;;;;;;;;;;4995480;28;20644;-73
2021/11/30 08:27:31;;;;;;;5.20;4.13;;;;;;;;;;4997655;28;20561;-73
2021/11/30 08:30:35;;;;;;;9.27;5.43;;;;;;;;;;5009833;28;20620;-72
2021/11/30 08:33:40;;;;;;;10.47;6.27;;;;;;;;;;5009729;28;21183;-72
2021/11/30 08:36:43;;;;;;;7.67;5.13;;;;;;;;;;5001184;28;21116;-73
2021/11/30 08:39:49;;;;;;;6.80;5.10;;;;;;;;;;5004904;28;21147;-72
2021/11/30 08:42:53;;;;;;;7.10;3.40;;;;;;;;;;5012516;28;21139;-73
2021/11/30 08:45:57;;;;;;;6.07;3.43;;;;;;;;;;5013555;28;20608;-72
2021/11/30 08:49:02;;;;;;;6.17;4.07;;;;;;;;;;4981549;28;21168;-72
2021/11/30 08:52:11;;;;;;;4.17;3.57;;;;;;;;;;4993784;28;20629;-72
2021/11/30 08:55:16;;;;;;;5.07;3.50;;;;;;;;;;4994054;28;21235;-72
2021/11/30 08:58:20;;;;;;;6.07;4.20;;;;;;;;;;4994724;28;20930;-72
2021/11/30 09:01:25;;;;;;;6.00;3.83;;;;;;;;;;5000407;28;21235;-72
2021/11/30 09:04:29;;;;;;;8.47;4.47;;;;;;;;;;5012225;28;20643;-72
2021/11/30 09:07:33;;;;;;;13.07;6.03;;;;;;;;;;5000860;28;20587;-73
2021/11/30 09:10:37;;;;;;;16.07;9.20;;;;;;;;;;5000942;28;20620;-73
2021/11/30 09:13:42;;;;;;;19.87;10.77;;;;;;;;;;5011369;28;20632;-72
2021/11/30 09:16:45;;;;;;;11.87;6.90;;;;;;;;;;5013426;28;20555;-72
2021/11/30 09:19:50;;;;;;;27.33;13.27;;;;;;;;;;5000964;28;20592;-73
2021/11/30 09:22:54;;;;;;;12.73;7.23;;;;;;;;;;5013031;28;20564;-72
2021/11/30 09:26:00;;;;;;;15.73;8.90;;;;;;;;;;5012594;28;20951;-73
2021/11/30 09:29:05;;;;;;;17.33;10.93;;;;;;;;;;5012886;28;20568;-72
2021/11/30 09:32:10;;;;;;;39.77;24.63;;;;;;;;;;5012709;28;20651;-72
2021/11/30 09:35:20;;;;;;;9.70;7.17;;;;;;;;;;5012749;28;20561;-72
2021/11/30 09:38:25;;;;;;;18.87;9.60;;;;;;;;;;5000931;28;21037;-72
2021/11/30 09:41:29;;;;;;;10.97;6.70;;;;;;;;;;5000485;28;20627;-72
2021/11/30 09:44:34;;;;;;;8.63;4.87;;;;;;;;;;5012543;28;21112;-72
2021/11/30 09:47:40;;;;;;;7.37;4.80;;;;;;;;;;5012437;28;20572;-72
2021/11/30 09:50:45;;;;;;;10.97;7.23;;;;;;;;;;5001607;28;20652;-72
2021/11/30 09:53:49;;;;;;;10.90;7.73;;;;;;;;;;5012371;28;20607;-72
2021/11/30 09:56:53;;;;;;;16.40;9.17;;;;;;;;;;5012579;28;21104;-72
2021/11/30 09:59:59;;;;;;;7.43;4.63;;;;;;;;;;5012036;28;20568;-72
2021/11/30 10:03:03;;;;;;;10.90;6.07;;;;;;;;;;5012279;28;20564;-72
2021/11/30 10:06:09;;;;;;;5.23;4.00;;;;;;;;;;5012233;28;21192;-73
2021/11/30 10:09:16;;;;;;;4.33;3.40;;;;;;;;;;5012173;28;20592;-72
2021/11/30 10:12:20;;;;;;;6.27;3.93;;;;;;;;;;5011401;28;20627;-72
2021/11/30 10:15:24;;;;;;;6.87;3.30;;;;;;;;;;5000002;28;20560;-73
2021/11/30 10:18:32;;;;;;;5.17;3.40;;;;;;;;;;4988837;28;20565;-72
2021/11/30 10:21:36;;;;;;;4.07;3.33;;;;;;;;;;5011991;28;20631;-72
2021/11/30 10:24:41;;;;;;;4.43;2.67;;;;;;;;;;4977168;28;20568;-73
2021/11/30 10:27:48;;;;;;;3.77;2.53;;;;;;;;;;5012075;28;20561;-73
2021/11/30 10:30:52;;;;;;;12.10;4.47;;;;;;;;;;4999706;28;20632;-72
2021/11/30 10:33:57;;;;;;;3.80;3.40;;;;;;;;;;5011578;28;20568;-73
2021/11/30 10:37:04;;;;;;;4.70;3.20;;;;;;;;;;5011195;28;21147;-73
2021/11/30 10:40:30;;;;;;;2.93;2.27;;;;;;;;;;5011358;28;20596;-72
2021/11/30 10:43:34;;;;;;;5.03;3.00;;;;;;;;;;5011364;28;20942;-73
2021/11/30 10:46:38;;;;;;;3.37;2.07;;;;;;;;;;4999121;28;21231;-73
2021/11/30 10:49:45;;;;;;;9.10;5.83;;;;;;;;;;4998852;28;20627;-72
2021/11/30 10:52:51;;;;;;;3.23;2.13;;;;;;;;;;5006737;28;20593;-72
2021/11/30 10:56:05;;;;;;;2.37;2.03;;;;;;;;;;5011097;28;20592;-72
2021/11/30 10:59:19;;;;;;;3.33;2.23;;;;;;;;;;5010516;28;20597;-72
2021/11/30 11:03:00;;;;;;;3.13;1.90;;;;;;;;;;5011045;28;20660;-72
2021/11/30 11:09:42;;;;;;;9.67;5.00;;;;;;;;;;5035226;28;20596;-84
2021/11/30 11:12:46;;;;;;;7.03;3.93;;;;;;;;;;5000415;28;20584;-84
2021/11/30 11:15:54;;;;;;;6.30;4.87;;;;;;;;;;5010792;28;20610;-84
2021/11/30 11:19:00;;;;;;;6.03;3.33;;;;;;;;;;5013395;28;20596;-85
2021/11/30 11:22:16;;;;;;;4.50;3.60;;;;;;;;;;5020191;28;20582;-84
2021/11/30 11:25:28;;;;;;;6.77;3.30;;;;;;;;;;5049804;28;21235;-84
2021/11/30 11:28:32;;;;;;;5.03;3.67;;;;;;;;;;5014487;28;20624;-84
2021/11/30 11:31:39;;;;;;;6.70;4.70;;;;;;;;;;5031546;28;20586;-84
2021/11/30 11:34:45;;;;;;;5.83;2.47;;;;;;;;;;5018546;28;20945;-84
2021/11/30 11:37:52;;;;;;;5.00;2.40;;;;;;;;;;5031714;28;20642;-84
2021/11/30 11:40:57;;;;;;;4.30;3.90;;;;;;;;;;5030776;28;21149;-83
2021/11/30 11:44:02;;;;;;;4.13;2.90;;;;;;;;;;5027881;28;20614;-85
2021/11/30 11:47:08;;;;;;;3.00;2.00;;;;;;;;;;5043105;28;20642;-85
2021/11/30 11:50:13;;;;;;;12.77;7.17;;;;;;;;;;5012814;28;20960;-84
2021/11/30 11:53:23;;;;;;;7.23;4.60;;;;;;;;;;5023150;28;20548;-84
2021/11/30 11:56:30;;;;;;;5.07;2.73;;;;;;;;;;5023271;28;20612;-83
2021/11/30 11:59:43;;;;;;;12.20;7.47;;;;;;;;;;5034647;28;20706;-84
2021/11/30 12:02:53;;;;;;;8.10;5.23;;;;;;;;;;5012228;28;20548;-84
2021/11/30 12:05:59;;;;;;;7.87;5.10;;;;;;;;;;5011421;28;20659;-84
2021/11/30 12:09:20;;;;;;;6.37;4.07;;;;;;;;;;5042440;28;20594;-84
2021/11/30 12:12:24;;;;;;;15.47;8.47;;;;;;;;;;5023159;28;21155;-85
2021/11/30 12:15:53;;;;;;;8.97;4.13;;;;;;;;;;5030697;28;21230;-84
2021/11/30 12:18:58;;;;;;;17.50;9.30;;;;;;;;;;5011357;28;20551;-84
2021/11/30 12:22:03;;;;;;;22.03;9.13;;;;;;;;;;5037278;28;20618;-85
2021/11/30 12:25:29;;;;;;;16.43;7.50;;;;;;;;;;5011742;28;20643;-85
2021/11/30 12:28:36;;;;;;;12.37;7.63;;;;;;;;;;5031791;28;20539;-85
2021/11/30 12:31:41;;;;;;;2.80;2.33;;;;;;;;;;5000932;28;20588;-84
2021/11/30 12:34:48;;;;;;;4.83;4.03;;;;;;;;;;5029468;28;21146;-84
2021/11/30 12:38:14;;;;;;;4.67;2.33;;;;;;;;;;5039239;28;20971;-85
2021/11/30 12:41:36;;;;;;;4.70;3.00;;;;;;;;;;5013048;28;20592;-85
2021/11/30 12:44:43;;;;;;;3.97;2.77;;;;;;;;;;5045025;28;20595;-85
2021/11/30 12:47:47;;;;;;;4.43;2.23;;;;;;;;;;5014228;28;21150;-86
2021/11/30 12:51:13;;;;;;;2.40;2.03;;;;;;;;;;5003041;28;20606;-85
2021/11/30 12:54:24;;;;;;;11.10;7.93;;;;;;;;;;5022653;28;20603;-85
2021/11/30 12:57:36;;;;;;;5.23;3.27;;;;;;;;;;5001257;28;20556;-86
2021/11/30 13:01:09;;;;;;;5.80;3.10;;;;;;;;;;5001263;28;20556;-87
2021/11/30 13:04:29;;;;;;;5.27;3.00;;;;;;;;;;5027991;28;20583;-86
2021/11/30 13:07:36;;;;;;;4.00;2.60;;;;;;;;;;5026615;28;20639;-84
2021/11/30 13:10:47;;;;;;;6.57;3.67;;;;;;;;;;5025483;28;20960;-85
2021/11/30 13:14:09;;;;;;;7.03;5.30;;;;;;;;;;5023467;28;20556;-86
2021/11/30 13:17:35;;;;;;;5.57;3.97;;;;;;;;;;5019953;28;20582;-86
2021/11/30 13:20:39;;;;;;;9.17;4.37;;;;;;;;;;5030299;28;20590;-85
2021/11/30 13:23:43;;;;;;;13.67;7.60;;;;;;;;;;5019193;28;20587;-85
2021/11/30 13:26:47;;;;;;;11.53;6.70;;;;;;;;;;5018193;23;20676;-74
2021/11/30 13:30:06;;;;;;;35.67;22.60;;;;;;;;;;5015944;28;20596;-74
2021/11/30 13:33:14;;;;;;;3.37;2.87;;;;;;;;;;4996056;28;20553;-74
2021/11/30 13:36:18;;;;;;;5.40;3.83;;;;;;;;;;4996740;28;20550;-75
2021/11/30 13:39:23;;;;;;;5.80;3.10;;;;;;;;;;4992960;28;20573;-73
2021/11/30 13:42:27;;;;;;;3.90;2.60;;;;;;;;;;4977090;28;20629;-74
2021/11/30 13:45:32;;;;;;;6.77;2.97;;;;;;;;;;4977175;28;20606;-73
2021/11/30 13:48:39;;;;;;;5.90;3.90;;;;;;;;;;4991209;28;20601;-73
2021/11/30 13:51:44;;;;;;;3.70;2.97;;;;;;;;;;4979397;28;20649;-74
2021/11/30 13:54:56;;;;;;;3.50;2.90;;;;;;;;;;4995459;28;20593;-75
2021/11/30 13:58:33;;;;;;;3.23;2.70;;;;;;;;;;5004383;28;20581;-74
2021/11/30 14:02:14;;;;;;;4.97;2.80;;;;;;;;;;4981180;28;20651;-74
2021/11/30 14:05:18;;;;;;;4.47;2.80;;;;;;;;;;4995501;28;20546;-74
2021/11/30 14:08:23;;;;;;;2.80;2.30;;;;;;;;;;4995425;28;20916;-74
2021/11/30 14:11:30;;;;;;;3.33;2.70;;;;;;;;;;4976609;28;20629;-74
2021/11/30 14:14:36;;;;;;;3.57;2.47;;;;;;;;;;4978001;28;20555;-73
2021/11/30 14:17:43;;;;;;;4.87;2.80;;;;;;;;;;4995752;28;20923;-73
2021/11/30 14:20:47;;;;;;;10.57;5.53;;;;;;;;;;5006068;28;20653;-73
2021/11/30 14:24:06;;;;;;;3.57;3.00;;;;;;;;;;5017916;28;20542;-73
2021/11/30 14:27:13;;;;;;;3.37;3.03;;;;;;;;;;5017543;28;21017;-73
2021/11/30 14:30:33;;;;;;;3.13;2.50;;;;;;;;;;4990316;28;20593;-74
2021/11/30 14:33:37;;;;;;;5.43;2.70;;;;;;;;;;4975351;28;20567;-73
2021/11/30 14:36:41;;;;;;;5.77;2.57;;;;;;;;;;4982945;28;21201;-73
2021/11/30 14:39:46;;;;;;;7.23;4.07;;;;;;;;;;5005264;28;20601;-73
2021/11/30 14:43:04;;;;;;;4.03;2.87;;;;;;;;;;4992106;28;21049;-73
2021/11/30 14:46:09;;;;;;;5.50;2.70;;;;;;;;;;4991426;28;20558;-73
2021/11/30 14:49:13;;;;;;;3.13;2.60;;;;;;;;;;4991628;28;20597;-73
2021/11/30 14:52:19;;;;;;;5.10;3.37;;;;;;;;;;4991682;28;20652;-73
2021/11/30 14:55:31;;;;;;;5.27;3.97;;;;;;;;;;5002473;28;20570;-73
2021/11/30 14:58:40;;;;;;;25.83;18.43;;;;;;;;;;4990457;28;20589;-73
2021/11/30 15:01:53;;;;;;;4.63;3.93;;;;;;;;;;4990588;28;20667;-74
2021/11/30 15:04:57;;;;;;;3.70;2.87;;;;;;;;;;4991487;28;20601;-74
2021/11/30 15:08:21;;;;;;;5.67;3.17;;;;;;;;;;4991535;28;20609;-74
2021/11/30 15:11:32;;;;;;;4.20;2.47;;;;;;;;;;4989167;28;20649;-73
2021/11/30 15:14:40;;;;;;;4.50;3.40;;;;;;;;;;4991460;28;20573;-74
2021/11/30 15:17:44;;;;;;;5.47;3.37;;;;;;;;;;4991017;28;20597;-73
2021/11/30 15:20:50;;;;;;;4.07;2.70;;;;;;;;;;4989680;28;20649;-74
2021/11/30 15:23:54;;;;;;;4.80;3.83;;;;;;;;;;4990071;28;20937;-74
2021/11/30 15:26:59;;;;;;;8.90;6.17;;;;;;;;;;4989526;28;20664;-75
2021/11/30 15:30:10;;;;;;;11.93;7.40;;;;;;;;;;4989105;28;20609;-75
2021/11/30 15:33:14;;;;;;;17.47;10.17;;;;;;;;;;4990498;28;20566;-75
2021/11/30 15:36:19;;;;;;;4.10;3.70;;;;;;;;;;4990545;28;20620;-74
2021/11/30 15:39:24;;;;;;;5.13;3.60;;;;;;;;;;4975767;28;20602;-74
2021/11/30 15:42:28;;;;;;;4.23;2.80;;;;;;;;;;4986891;28;21014;-74
2021/11/30 15:45:32;;;;;;;2.63;2.20;;;;;;;;;;4990561;28;20565;-74
2021/11/30 15:48:37;;;;;;;4.00;2.67;;;;;;;;;;4982101;28;21206;-74
2021/11/30 15:51:44;;;;;;;3.77;2.60;;;;;;;;;;4959483;28;20634;-75
2021/11/30 15:54:50;;;;;;;4.80;2.43;;;;;;;;;;4979594;28;20597;-76
2021/11/30 15:57:54;;;;;;;26.37;15.20;;;;;;;;;;4982762;28;20595;-75
2021/11/30 16:00:58;;;;;;;7.40;5.57;;;;;;;;;;4959582;28;20653;-77
2021/11/30 16:04:03;;;;;;;11.33;6.67;;;;;;;;;;4972181;28;20595;-77
2021/11/30 16:07:08;;;;;;;5.23;3.20;;;;;;;;;;4960358;28;20983;-77
2021/11/30 16:10:12;;;;;;;9.03;5.97;;;;;;;;;;4952706;29;21190;-77
2021/11/30 16:13:17;;;;;;;4.47;3.37;;;;;;;;;;4931729;29;20567;-77
2021/11/30 16:16:22;;;;;;;5.97;2.97;;;;;;;;;;4972246;28;20586;-78
2021/11/30 16:19:27;;;;;;;3.63;2.60;;;;;;;;;;4981535;28;20594;-78
2021/11/30 16:22:31;;;;;;;5.17;4.43;;;;;;;;;;4982702;28;20657;-78
2021/11/30 16:25:36;;;;;;;3.70;2.37;;;;;;;;;;4972296;28;20640;-78
2021/11/30 16:28:41;;;;;;;3.63;2.63;;;;;;;;;;4994330;28;20637;-78
2021/11/30 16:31:46;;;;;;;5.50;2.63;;;;;;;;;;4995330;28;21545;-79
2021/11/30 16:34:50;;;;;;;2.80;2.43;;;;;;;;;;4971622;28;20624;-79
2021/11/30 16:37:56;;;;;;;6.27;4.67;;;;;;;;;;4953148;28;21114;-79
2021/11/30 16:41:02;;;;;;;4.90;3.70;;;;;;;;;;4992730;28;20661;-80
2021/11/30 16:44:08;;;;;;;5.40;4.13;;;;;;;;;;4972630;28;21083;-78
2021/11/30 16:47:17;;;;;;;5.77;4.10;;;;;;;;;;4972126;28;20648;-79
2021/11/30 16:50:22;;;;;;;5.37;3.87;;;;;;;;;;4984591;28;21142;-81
2021/11/30 16:53:26;;;;;;;5.40;3.63;;;;;;;;;;4972764;28;20565;-83
2021/11/30 16:56:30;;;;;;;4.37;3.40;;;;;;;;;;4985465;28;20915;-81
2021/11/30 16:59:34;;;;;;;3.57;3.27;;;;;;;;;;4978028;28;20601;-82
2021/11/30 17:02:38;;;;;;;5.73;4.07;;;;;;;;;;4966462;28;20629;-82
2021/11/30 17:05:43;;;;;;;4.03;3.33;;;;;;;;;;4976068;28;21061;-81
2021/11/30 17:08:47;;;;;;;6.03;4.13;;;;;;;;;;4958391;28;20656;-79
2021/11/30 17:11:55;;;;;;;4.10;3.70;;;;;;;;;;4985085;28;20625;-79
2021/11/30 17:14:59;;;;;;;5.37;3.50;;;;;;;;;;4974180;28;20569;-80
2021/11/30 17:18:03;;;;;;;4.30;3.90;;;;;;;;;;4975399;28;20594;-78
2021/11/30 17:21:08;;;;;;;6.63;4.70;;;;;;;;;;4976248;28;21189;-79
2021/11/30 17:24:18;;;;;;;5.13;4.27;;;;;;;;;;4964943;28;20562;-79
2021/11/30 17:27:24;;;;;;;4.80;3.40;;;;;;;;;;4951585;28;20645;-77
2021/11/30 17:30:30;;;;;;;4.33;3.50;;;;;;;;;;4942565;28;20602;-79
2021/11/30 17:33:34;;;;;;;6.10;4.83;;;;;;;;;;4968639;28;20594;-80
2021/11/30 17:36:39;;;;;;;4.43;3.30;;;;;;;;;;4967927;28;20558;-79
2021/11/30 17:39:43;;;;;;;4.27;3.80;;;;;;;;;;4967120;28;20589;-79
2021/11/30 17:42:48;;;;;;;5.77;4.00;;;;;;;;;;4968235;28;20570;-79
2021/11/30 17:45:52;;;;;;;4.23;3.80;;;;;;;;;;4978846;28;20578;-78
2021/11/30 17:48:57;;;;;;;5.07;4.50;;;;;;;;;;4966430;28;20629;-80
2021/11/30 17:52:02;;;;;;;4.43;3.70;;;;;;;;;;4968427;28;20637;-79
2021/11/30 17:55:07;;;;;;;7.20;4.43;;;;;;;;;;4979336;28;20606;-80
2021/11/30 17:58:10;;;;;;;11.30;8.70;;;;;;;;;;4956796;28;20809;-78
2021/11/30 18:01:15;;;;;;;5.03;4.53;;;;;;;;;;4967773;28;20645;-79
2021/11/30 18:04:20;;;;;;;7.23;5.03;;;;;;;;;;4978907;28;20582;-80
2021/11/30 18:07:24;;;;;;;5.97;4.60;;;;;;;;;;4957102;28;20733;-79
2021/11/30 18:10:29;;;;;;;3.57;3.20;;;;;;;;;;4966746;28;21484;-78
2021/11/30 18:13:33;;;;;;;3.57;3.10;;;;;;;;;;4989750;28;20570;-80
2021/11/30 18:16:37;;;;;;;4.43;3.10;;;;;;;;;;4958963;29;21136;-80
2021/11/30 18:19:42;;;;;;;4.43;3.10;;;;;;;;;;4964932;28;20622;-80
2021/11/30 18:22:46;;;;;;;4.03;3.63;;;;;;;;;;4967249;28;20597;-81
2021/11/30 18:25:50;;;;;;;3.50;3.17;;;;;;;;;;4986037;28;20632;-80
2021/11/30 18:28:55;;;;;;;3.00;2.70;;;;;;;;;;4986898;28;21012;-79
2021/11/30 18:31:59;;;;;;;2.90;2.63;;;;;;;;;;4963048;28;20656;-81
2021/11/30 18:35:05;;;;;;;3.80;2.90;;;;;;;;;;4967158;28;20625;-79
2021/11/30 18:38:09;;;;;;;3.47;3.17;;;;;;;;;;4955756;28;20602;-81
2021/11/30 18:41:13;;;;;;;2.93;2.60;;;;;;;;;;4982449;28;20656;-80
2021/11/30 18:44:17;;;;;;;3.00;2.60;;;;;;;;;;4963985;28;20561;-82
2021/11/30 18:47:22;;;;;;;4.93;3.00;;;;;;;;;;4947163;28;20932;-79
2021/11/30 18:50:26;;;;;;;2.93;2.60;;;;;;;;;;4949589;28;20629;-81
2021/11/30 18:53:30;;;;;;;2.87;2.67;;;;;;;;;;4956166;28;20585;-81